Date,TemperatureHighF,TemperatureAvgF,TemperatureLowF,DewpointHighF,DewpointAvgF,DewpointLowF,HumidityHigh,HumidityAvg,HumidityLow,PressureMaxIn,PressureMinIn,WindSpeedMaxMPH,WindSpeedAvgMPH,GustSpeedMaxMPH,PrecipitationSumIn
2013-1-1,74.8,58.8,42.6,58.2,51.5,40.7,95,79,55,30.25,30.03,8,2,14,0.00
2013-1-2,70.2,63.8,61.2,65.1,59.8,56.7,91,87,80,30.10,30.01,6,1,8,0.00
2013-1-3,63.1,56.8,48.7,60.6,54.9,47.1,95,93,91,30.28,30.07,4,1,10,0.27
2013-1-4,58.1,50.1,43.2,49.7,46.2,41.6,95,87,71,30.37,30.25,4,1,8,0.00
2013-1-5,71.1,52.8,36.9,51.4,44.5,35.3,96,76,45,30.37,30.26,4,0,8,0.00
2013-1-6,60.3,55.8,52.9,54.0,52.0,49.6,95,87,77,30.29,30.15,3,0,5,1.04
2013-1-7,68.5,54.0,45.7,52.3,48.0,42.7,95,81,55,30.33,30.21,5,1,11,0.00
2013-1-8,79.5,63.8,52.9,66.4,58.0,48.7,92,82,63,30.31,30.20,4,1,8,0.00
2013-1-9,81.5,69.6,61.7,71.7,65.5,59.3,96,87,69,30.36,30.25,5,1,8,0.00
2013-1-10,85.8,72.8,67.6,70.3,65.8,62.1,95,80,49,30.36,30.25,6,1,11,0.00
2013-1-11,85.5,69.2,59.0,68.3,60.0,57.3,96,76,41,30.30,30.16,7,1,12,16.53
2013-1-12,88.7,68.3,55.2,68.3,59.0,52.9,95,75,40,30.22,30.10,5,0,9,0.00
2013-1-13,84.0,68.3,57.7,66.7,60.0,55.1,94,78,47,30.20,30.08,8,1,11,0.00
2013-1-14,84.4,66.6,55.0,66.1,58.0,53.3,97,77,46,30.21,30.11,9,2,17,0.00
2013-1-15,82.4,65.3,50.7,66.7,57.0,49.1,96,77,47,30.19,30.06,8,1,16,0.00
2013-1-16,82.2,65.2,54.5,66.8,58.2,52.5,97,80,51,30.12,30.00,8,2,16,0.00
2013-1-17,67.8,55.3,41.7,64.8,49.6,32.6,97,82,52,30.21,29.98,14,3,27,0.02
2013-1-18,64.8,50.0,40.6,44.9,38.8,32.8,83,67,45,30.43,30.20,9,2,15,0.00
2013-1-19,75.9,53.8,40.6,54.6,44.9,35.7,89,73,47,30.39,30.22,5,1,10,0.00
2013-1-20,79.2,62.5,48.4,56.8,51.4,44.5,91,71,35,30.24,30.08,4,1,7,0.00
2013-1-21,73.0,57.0,44.6,54.2,46.9,42.4,94,72,39,30.16,30.05,4,0,7,0.00
2013-1-22,65.8,47.5,35.6,43.5,37.1,29.2,92,72,26,30.34,30.13,6,0,10,0.00
2013-1-23,68.7,47.5,28.0,39.6,33.0,25.5,92,64,27,30.44,30.31,4,0,8,0.00
2013-1-24,77.0,54.7,35.8,54.0,44.1,32.5,95,71,35,30.34,30.22,7,1,12,0.00
2013-1-25,75.7,59.3,46.4,56.4,48.5,41.9,91,71,38,30.36,30.19,8,1,14,0.00
2013-1-26,77.7,61.6,46.4,60.5,54.2,43.4,96,79,49,30.28,30.17,7,1,12,0.00
2013-1-27,79.7,63.5,55.2,61.4,55.8,52.0,94,77,51,30.39,30.25,6,1,11,0.00
2013-1-28,83.1,67.0,52.9,63.9,57.9,50.8,94,75,47,30.39,30.25,8,1,15,0.00
2013-1-29,85.1,68.6,56.7,67.8,60.9,54.4,96,79,50,30.29,30.10,7,1,11,0.00
2013-2-13,74.5,70.3,60.4,71.4,66.5,53.8,96,88,64,29.97,29.82,13,4,21,0.00
2013-2-14,60.4,52.5,45.9,55.2,49.0,43.4,93,88,80,30.13,29.95,4,0,8,0.00
2013-2-15,72.1,50.3,34.2,45.9,39.7,32.9,96,72,29,30.14,30.00,4,0,9,0.00
2013-2-16,59.2,47.6,38.3,46.5,36.6,19.3,94,69,38,30.19,29.96,8,1,12,0.00
2013-2-17,57.7,38.3,24.3,25.7,16.4,0.2,88,51,10,30.40,30.19,5,1,11,0.00
2013-2-18,54.9,27.6,21.0,33.4,21.7,17.8,89,80,32,30.43,30.36,4,0,10,0.00
2013-2-23,63.1,62.8,62.6,61.1,60.8,60.5,94,93,93,29.95,29.92,0,0,2,0.00
2013-2-24,76.1,65.4,56.8,65.6,61.8,55.4,96,89,65,30.01,29.87,4,0,6,0.00
2013-2-25,66.7,61.0,55.2,64.6,59.4,53.8,97,95,90,29.95,29.80,5,1,9,0.00
2013-2-26,72.5,67.2,63.9,68.7,65.1,60.5,99,93,66,29.79,29.64,9,2,18,0.00
2013-3-1,64.4,53.1,45.3,41.5,35.6,32.7,73,53,32,30.05,29.93,5,1,11,0.00
2013-3-2,59.0,43.8,31.5,36.1,29.4,24.9,90,61,28,30.08,29.96,10,2,17,0.00
2013-3-3,51.3,37.9,27.7,33.4,26.9,23.1,87,67,39,30.18,30.04,11,1,16,0.00
2013-3-4,69.3,45.2,24.6,34.9,26.3,17.6,92,57,16,30.26,30.13,6,1,11,0.00
2013-3-5,76.5,56.6,34.7,61.1,45.6,30.5,90,70,39,30.21,29.94,14,4,21,0.00
2013-3-6,67.1,53.2,35.8,61.7,33.3,21.4,85,51,20,30.19,29.92,9,2,20,0.00
2013-3-7,71.4,47.6,30.6,36.6,32.1,27.2,90,61,23,30.26,30.16,4,1,8,0.00
2013-3-8,79.5,55.3,29.8,46.5,33.8,20.1,91,55,11,30.27,30.14,5,1,10,0.00
2013-3-9,77.9,56.1,34.5,51.1,41.9,32.2,92,65,26,30.30,30.18,5,1,11,0.00
2013-3-10,84.2,63.0,44.6,56.9,49.5,41.3,92,66,32,30.24,30.09,7,1,12,0.00
2013-3-11,77.2,63.7,47.5,59.8,53.5,45.3,94,72,47,30.15,29.90,9,2,17,0.00
2013-3-12,73.0,63.3,46.4,64.7,55.6,42.2,97,78,34,30.07,29.84,7,1,13,0.00
2013-3-13,76.3,55.9,39.4,46.3,35.8,25.0,94,57,15,30.23,30.07,7,1,14,0.00
2013-3-14,68.4,49.5,34.9,34.9,29.7,23.2,84,52,18,30.34,30.21,5,1,9,0.00
2013-3-15,77.9,53.1,30.2,44.3,32.6,27.0,90,54,19,30.32,30.14,6,1,11,0.00
2013-3-16,81.3,58.8,37.2,54.8,42.7,34.2,91,60,28,30.20,30.03,7,2,19,0.00
2013-3-17,77.5,59.1,39.9,57.6,46.5,36.9,92,67,33,30.15,30.01,8,1,12,0.00
2013-3-18,79.2,68.0,57.9,65.5,61.2,55.6,94,80,58,30.07,29.87,11,2,16,0.00
2013-3-19,84.6,68.4,57.9,64.7,59.6,55.9,96,77,45,30.05,29.90,7,1,10,0.00
2013-3-20,77.2,62.1,49.1,59.0,52.1,45.9,92,72,44,30.03,29.86,4,1,9,0.00
2013-3-21,73.0,52.0,35.4,46.7,33.4,16.0,96,60,12,30.01,29.89,6,1,14,0.00
2013-3-22,76.8,55.7,37.6,45.3,39.0,29.9,88,58,26,30.08,29.95,6,1,11,0.00
2013-3-23,72.5,60.2,48.9,69.9,56.9,42.9,97,89,72,30.02,29.79,4,0,8,0.00
2013-3-24,85.3,72.4,62.6,71.9,66.7,61.7,99,84,55,29.81,29.56,11,4,22,0.00
2013-3-25,69.6,58.6,43.7,61.8,35.4,15.8,91,47,16,30.09,29.68,8,2,14,0.00
2013-3-26,59.9,46.5,33.8,31.0,26.5,21.7,79,49,23,30.30,30.09,10,1,21,0.00
2013-3-27,65.7,45.5,28.8,36.5,29.2,25.0,91,59,22,30.36,30.24,5,1,11,0.00
2013-3-28,74.3,50.7,29.8,44.2,31.2,24.3,92,57,16,30.34,30.21,4,1,11,0.00
2013-3-29,81.3,55.8,33.3,49.0,36.2,29.1,92,57,16,30.37,30.20,4,1,9,0.00
2013-3-30,80.2,58.5,37.6,54.7,39.9,31.1,92,58,18,30.29,30.13,9,1,15,0.00
2013-3-31,81.7,64.9,49.6,58.4,51.9,44.3,90,66,38,30.17,29.99,12,2,19,0.00
2013-4-1,83.8,69.6,54.3,67.0,59.4,51.7,96,73,44,30.03,29.89,10,2,17,0.00
2013-4-2,89.6,67.4,47.5,60.2,48.7,39.8,95,60,19,30.13,30.00,4,1,7,0.00
2013-4-3,83.3,64.7,51.1,67.1,56.3,46.8,91,76,51,30.12,30.00,7,1,11,0.00
2013-4-5,61.5,57.9,51.8,58.8,54.0,48.7,93,87,79,30.08,29.91,4,1,10,0.00
2013-4-6,81.3,60.8,41.5,55.4,49.3,40.2,97,71,34,30.21,30.06,7,1,17,0.00
2013-4-7,87.6,66.1,49.1,64.6,54.6,47.4,96,71,34,30.21,30.08,7,1,11,0.00
2013-4-8,91.8,70.0,50.2,65.3,55.1,48.2,95,65,27,30.18,30.06,6,1,11,0.00
2013-4-9,91.4,71.6,54.5,67.6,59.7,52.5,95,70,34,30.20,30.09,6,1,11,0.00
2013-4-10,92.7,72.4,52.2,66.7,58.9,49.9,94,67,32,30.15,29.98,8,1,17,0.00
2013-4-11,90.1,76.3,64.2,72.8,67.5,60.8,95,76,49,30.00,29.79,9,2,18,0.00
2013-4-12,86.9,76.9,72.5,73.5,69.0,65.3,91,78,54,29.90,29.76,15,4,24,0.00
2013-4-13,90.7,73.0,57.4,66.8,53.4,43.9,87,56,21,30.03,29.89,5,1,9,0.00
2013-4-14,72.7,65.0,58.3,66.7,60.5,52.1,97,86,73,30.02,29.88,6,1,14,0.00
2013-4-15,89.8,73.0,58.3,70.3,64.2,57.4,98,77,48,30.13,29.82,6,1,11,0.00
2013-4-16,95.2,75.3,59.7,69.6,64.0,57.5,96,72,37,30.19,30.10,7,1,11,0.00
2013-4-17,88.2,72.7,61.2,70.1,64.1,58.8,96,77,50,30.20,30.08,6,1,11,0.00
2013-4-18,91.9,74.8,60.8,71.2,63.7,58.8,97,72,37,30.10,29.96,5,1,10,0.00
2013-4-19,89.2,77.2,62.8,74.4,69.5,60.1,93,79,53,30.04,29.88,14,3,25,0.00
2013-4-20,65.8,55.6,47.1,60.2,51.8,44.6,96,88,61,30.23,30.02,4,0,10,0.00
2013-4-21,76.5,60.8,45.1,62.3,55.4,43.5,96,84,61,30.22,30.12,7,1,14,0.01
2013-4-22,66.7,62.7,52.7,62.2,58.7,50.1,96,87,75,30.18,30.08,8,1,19,0.00
2013-4-23,87.1,65.9,49.5,61.6,54.6,48.0,97,71,39,30.18,30.07,6,1,11,0.00
2013-4-24,91.2,68.8,48.6,64.8,57.2,46.6,95,71,34,30.18,30.08,5,0,10,0.00
2013-4-25,91.2,71.7,54.5,69.5,61.6,52.6,96,74,40,30.23,30.13,4,0,8,0.00
2013-4-26,91.6,72.8,57.0,65.6,61.0,55.6,96,70,38,30.30,30.19,7,1,14,0.00
2013-4-27,92.3,73.2,55.4,65.3,58.3,52.5,95,63,33,30.27,30.12,6,1,11,0.00
2013-4-28,88.2,71.6,58.3,69.2,61.9,55.4,95,74,47,30.19,29.96,7,1,11,0.00
2013-4-29,85.3,72.4,61.9,66.0,63.0,59.0,91,74,47,30.03,29.93,8,1,11,0.00
2013-4-30,96.1,74.7,61.2,70.2,63.3,58.3,99,72,30,30.06,29.92,5,1,15,0.00
2013-5-1,80.8,69.9,63.5,69.5,64.4,61.2,95,83,64,30.07,29.98,6,1,14,0.00
2013-5-2,80.4,70.1,66.2,70.8,65.9,61.4,96,87,64,30.05,29.88,8,2,17,0.39
2013-5-3,71.8,66.8,64.9,68.5,65.3,60.2,99,95,86,29.90,29.82,9,2,17,3.23
2013-5-4,73.2,68.6,64.8,70.6,66.4,61.5,99,93,85,29.84,29.71,7,1,12,0.34
2013-5-5,80.6,67.0,56.1,68.1,55.9,48.4,99,72,35,29.93,29.76,9,2,15,0.01
2013-5-6,76.3,63.6,50.0,58.9,50.6,45.3,94,66,35,30.03,29.88,8,1,14,0.00
2013-5-7,79.2,63.4,51.3,63.8,54.8,48.3,95,76,42,30.05,29.93,10,2,21,0.01
2013-5-8,85.3,68.6,52.3,65.0,57.5,50.9,97,71,40,30.14,30.02,7,1,12,0.00
2013-5-9,91.4,72.3,57.7,69.6,59.8,54.0,97,71,30,30.17,30.06,4,0,8,0.00
2013-5-10,91.8,73.3,56.1,69.7,59.3,45.5,96,67,23,30.16,29.99,8,1,16,0.00
2013-5-11,88.3,71.6,60.4,72.2,65.7,57.5,97,83,55,30.07,29.95,11,1,21,0.39
2013-5-12,82.9,69.1,65.1,72.5,67.2,64.5,99,94,64,30.03,29.96,4,0,7,0.02
2013-5-15,85.1,81.6,76.8,69.4,56.7,51.7,66,43,34,30.25,30.00,4,1,6,0.00
2013-5-16,79.5,78.2,75.2,68.0,67.3,66.0,74,69,67,30.15,30.13,7,2,9,0.00
2013-5-17,76.6,76.6,76.5,66.9,66.9,66.7,72,72,72,30.12,30.11,4,4,8,0.00
2013-5-18,83.3,75.8,71.2,69.0,67.0,65.7,87,75,61,30.10,30.03,3,1,9,0.00
2013-5-19,95.9,78.1,67.5,74.6,69.5,65.1,99,78,40,30.11,29.97,5,1,9,0.01
2013-5-20,97.3,76.8,67.8,74.9,70.2,67.4,99,83,41,30.11,29.97,9,1,14,0.52
2013-5-21,94.8,74.2,63.3,76.6,69.2,63.0,99,87,46,30.06,29.95,8,0,19,0.02
2013-5-22,93.7,76.6,64.4,78.2,69.5,64.1,99,81,45,30.00,29.90,6,1,13,0.00
2013-5-23,96.1,79.5,65.5,73.7,68.0,63.9,99,72,39,30.00,29.90,5,1,9,0.00
2013-5-24,94.8,79.1,63.0,76.7,64.3,53.1,99,67,31,30.13,29.96,5,1,13,0.00
2013-5-25,93.2,73.8,55.6,67.4,56.4,48.4,99,61,24,30.25,30.12,5,1,11,0.00
2013-5-26,95.2,73.4,52.2,66.2,55.1,47.6,99,60,21,30.26,30.13,4,0,8,0.00
2013-5-27,95.2,72.1,53.8,68.5,59.0,52.2,99,69,29,30.24,30.11,5,1,11,0.00
2013-5-28,96.6,75.9,56.7,70.0,63.9,55.7,99,70,35,30.19,30.07,6,1,12,0.00
2013-5-29,96.3,79.5,64.2,76.4,69.0,63.6,99,74,41,30.16,30.06,8,1,14,0.00
2013-5-30,95.0,80.5,67.8,77.6,70.1,65.1,99,74,41,30.16,30.05,8,2,14,0.00
2013-5-31,94.1,79.4,67.8,76.3,70.0,67.2,99,76,46,30.15,30.05,7,1,15,0.00
2013-6-1,95.7,79.7,66.4,77.8,70.6,66.1,99,77,44,30.11,29.98,6,1,12,0.00
2013-6-2,97.7,80.6,71.2,78.2,73.8,70.6,99,83,44,30.06,29.90,4,1,8,0.02
2013-6-8,97.0,84.9,72.1,80.1,74.3,71.8,99,73,50,30.10,29.98,6,1,13,1.76
2013-6-9,94.1,77.9,70.9,81.4,74.9,70.6,99,92,58,30.13,30.02,8,0,18,0.29
2013-6-10,93.7,79.2,72.0,83.1,75.7,71.7,99,90,54,30.11,30.02,5,1,10,0.33
2013-6-11,94.6,81.2,70.7,82.8,75.3,70.4,99,85,53,30.10,30.00,4,0,9,0.01
2013-6-12,99.7,83.6,70.2,80.4,74.9,69.9,99,79,40,30.09,29.97,7,0,11,0.00
2013-6-13,97.2,84.1,76.5,80.5,77.4,74.8,99,82,51,30.02,29.88,8,1,16,0.00
2013-6-14,92.5,80.8,71.8,80.4,76.8,70.7,99,89,60,29.95,29.81,8,2,15,0.07
2013-6-15,94.1,80.5,70.7,78.4,71.4,67.0,99,77,49,30.10,29.94,6,1,14,0.01
2013-6-16,96.1,76.4,68.9,77.6,71.4,67.5,99,86,54,30.12,30.07,4,0,10,0.00
2013-6-18,83.3,79.6,76.1,75.1,74.2,73.3,91,84,73,30.01,29.96,2,0,4,0.00
2013-6-19,96.4,82.4,71.1,79.5,74.1,68.6,99,79,43,30.05,29.93,6,1,11,0.00
2013-6-20,96.6,79.1,70.3,79.4,73.9,70.0,99,86,47,30.11,30.00,5,1,9,0.29
2013-6-21,96.4,77.8,70.3,79.8,73.7,70.0,99,89,52,30.14,30.06,4,0,10,0.50
2013-6-22,93.7,77.4,67.6,79.4,72.7,67.3,99,87,53,30.15,30.06,5,0,11,0.00
2013-6-23,95.5,81.9,71.2,80.1,74.4,70.9,99,80,51,30.16,30.05,4,0,8,0.00
2013-6-24,99.5,82.5,71.1,79.1,73.3,67.7,99,77,42,30.20,30.05,6,1,11,0.07
2013-6-25,90.5,76.2,69.6,79.9,73.2,69.3,99,91,67,30.18,30.05,4,0,7,0.03
2013-6-26,100.2,80.3,70.2,80.8,73.9,69.7,99,83,44,30.10,29.98,6,1,14,0.01
2013-6-27,86.0,73.4,68.5,79.7,71.9,68.2,99,96,80,30.05,30.01,2,0,4,0.00
2013-6-28,77.2,76.6,75.2,75.1,74.8,74.2,97,94,93,29.90,29.88,2,0,6,0.00
2013-6-29,78.6,78.5,78.4,76.4,76.3,76.2,93,93,93,29.78,29.78,1,0,2,0.66
2013-7-2,93.4,79.9,72.5,78.4,75.2,72.2,99,87,59,30.11,30.00,8,2,16,1.42
2013-7-3,95.5,78.6,72.7,80.3,75.1,72.4,99,91,54,30.14,30.04,6,1,11,0.34
2013-7-4,89.8,76.6,70.5,81.3,74.8,70.2,99,95,69,30.19,30.08,8,1,17,0.86
2013-7-5,94.8,76.9,70.3,82.1,74.2,70.0,99,92,61,30.17,30.10,6,1,17,0.46
2013-7-6,96.6,80.9,71.4,80.8,75.2,71.1,99,85,53,30.16,30.04,5,1,12,0.00
2013-7-7,98.1,82.6,72.1,81.4,75.2,71.8,99,81,47,30.16,30.06,6,1,11,0.02
2013-7-8,100.4,82.4,70.9,81.9,74.5,70.6,99,80,44,30.19,30.08,4,0,8,0.00
2013-7-9,99.9,83.1,72.0,82.0,74.7,69.5,99,79,42,30.19,30.05,4,0,7,0.00
2013-7-10,99.0,82.3,71.6,79.1,73.7,68.0,99,79,39,30.12,29.96,4,0,7,0.00
2013-7-11,95.4,79.3,70.5,79.0,74.7,70.2,99,87,55,30.04,29.91,6,1,12,0.00
2013-7-12,90.3,77.7,70.9,80.1,74.5,70.6,99,91,65,29.96,29.87,5,0,11,0.23
2013-7-13,88.5,76.1,71.6,81.7,74.7,71.1,99,96,72,30.01,29.90,4,0,8,0.35
2013-7-14,90.9,78.7,71.2,79.3,74.7,70.9,99,89,64,30.12,29.98,5,1,11,0.00
2013-7-15,91.0,78.6,72.0,80.6,75.4,71.7,99,91,66,30.17,30.10,6,1,12,0.00
2013-7-16,95.0,81.3,73.2,81.1,75.4,72.9,99,84,55,30.21,30.14,8,1,20,0.13
2013-7-17,98.6,82.1,71.1,82.4,74.3,70.8,99,80,46,30.22,30.08,5,1,13,0.00
2013-7-18,97.3,81.0,70.7,80.1,73.9,70.4,99,82,47,30.15,30.03,4,0,10,0.00
2013-7-19,88.9,76.3,71.1,79.5,74.1,70.8,99,94,67,30.12,30.05,10,1,17,0.78
2013-7-20,89.1,75.1,71.2,79.4,73.8,70.9,99,96,70,30.11,30.02,11,0,20,0.63
2013-7-21,91.4,78.2,70.9,81.7,76.2,70.6,99,94,66,30.12,30.02,10,1,17,0.25
2013-7-22,89.2,77.5,73.0,82.0,76.2,72.7,99,96,72,30.15,30.04,11,1,20,0.48
2013-7-23,88.0,76.8,73.2,81.8,75.7,72.9,99,97,78,30.06,29.98,8,1,14,0.68
2013-8-11,102.4,85.6,72.1,82.3,76.9,71.4,99,79,39,30.17,29.97,4,1,8,0.05
2013-8-12,102.9,86.6,73.8,85.0,77.4,73.3,99,78,44,30.14,29.99,4,0,8,0.00
2013-8-13,100.2,84.9,73.0,82.6,76.3,71.5,99,79,44,30.05,29.90,7,1,13,0.00
2013-8-14,100.4,84.0,73.2,84.7,77.3,72.9,99,83,49,30.00,29.86,6,1,10,0.00
2013-8-15,96.4,82.8,72.1,81.5,76.1,71.8,99,83,53,30.04,29.91,11,1,17,0.00
2013-8-16,90.5,77.8,72.9,81.0,76.3,72.6,99,96,70,30.06,29.97,8,1,14,0.45
2013-8-17,76.5,75.1,73.9,76.2,74.8,73.6,99,99,99,30.13,30.00,2,0,5,0.23
2013-8-18,96.4,76.5,72.7,83.6,75.5,72.4,99,97,58,30.13,30.02,7,0,11,0.02
2013-8-19,75.4,74.5,73.8,75.1,74.2,73.5,99,99,99,30.10,30.03,2,0,5,0.00
2013-8-23,77.7,73.2,72.0,77.4,72.9,71.5,99,99,99,30.07,30.03,2,0,5,1.97
2013-8-26,93.9,84.2,73.0,81.3,77.5,72.7,99,82,59,30.18,30.05,5,1,10,0.85
2013-8-27,96.1,79.7,71.1,82.2,74.7,70.8,99,86,55,30.12,30.00,5,0,10,0.00
2013-8-28,96.3,79.6,67.5,79.2,72.9,67.2,99,83,48,30.07,29.97,6,1,11,0.00
2013-8-29,96.6,81.7,70.5,82.3,74.9,70.2,99,83,46,30.04,29.92,5,1,10,0.00
2013-8-30,99.3,82.9,72.1,82.8,76.7,71.8,99,84,50,29.98,29.86,5,0,9,0.00
2013-8-31,93.9,78.3,71.4,83.8,76.0,71.1,99,94,64,29.96,29.88,7,0,17,0.47
2013-9-1,94.6,80.1,71.6,83.3,76.0,71.3,99,89,58,29.98,29.89,8,1,16,0.03
2013-9-2,95.2,79.6,70.5,83.0,75.5,70.2,99,89,56,30.01,29.91,9,1,14,0.00
2013-9-3,93.2,80.5,71.8,83.6,77.2,71.5,99,91,63,30.02,29.91,8,1,11,0.00
2013-9-4,100.2,83.4,71.2,84.5,76.1,70.9,99,82,46,30.10,29.98,4,1,8,0.00
2013-9-7,96.3,90.6,83.3,82.2,77.5,74.5,92,67,51,30.05,30.01,4,1,8,0.23
2013-9-12,84.9,84.7,83.5,82.2,81.2,80.4,96,89,88,30.04,30.04,2,1,4,0.00
2013-9-13,98.1,94.7,90.9,78.6,73.8,69.6,67,52,41,29.90,29.83,4,2,7,0.00
2013-9-14,89.6,81.6,75.7,81.4,78.6,75.4,99,91,69,30.00,29.87,2,0,4,0.00
2013-9-15,99.0,82.2,69.4,84.6,75.7,69.1,99,84,50,30.12,29.98,5,0,10,0.02
2013-9-16,99.7,81.0,70.3,83.3,75.7,70.0,99,87,46,30.10,29.98,5,0,12,0.02
2013-9-17,93.9,79.0,68.4,83.3,74.8,68.1,99,89,56,30.10,29.99,8,1,14,0.00
2013-9-18,90.3,77.4,70.0,79.7,74.7,69.5,99,92,64,30.11,30.03,8,1,14,0.00
2013-9-19,95.4,77.0,67.3,81.1,72.8,67.0,99,89,53,30.10,30.00,4,1,9,0.05
2013-9-20,93.9,77.4,64.2,80.0,71.2,63.9,99,84,50,30.07,29.91,4,0,9,0.02
2013-9-21,95.2,77.8,65.3,79.2,71.9,65.0,99,85,47,29.96,29.75,6,1,11,0.00
2013-9-22,84.4,75.1,72.5,81.7,74.5,72.2,99,98,85,29.87,29.74,9,1,17,0.52
2013-9-23,84.6,75.8,71.8,83.3,75.4,71.5,99,99,91,29.97,29.84,3,0,7,0.16
2013-9-24,86.4,77.4,73.8,84.2,77.0,73.5,99,99,89,29.96,29.84,3,0,5,0.05
2013-9-25,87.1,76.6,71.6,81.6,75.5,71.3,99,97,84,29.86,29.73,6,1,11,0.06
2013-9-27,76.6,76.5,75.7,73.8,73.8,73.5,93,91,91,29.99,29.98,2,0,4,0.00
2013-10-1,88.2,83.4,75.7,74.0,72.6,70.5,92,71,58,30.11,30.08,4,1,12,0.00
2013-10-2,92.7,78.4,66.4,75.4,69.9,66.0,99,79,43,30.12,30.03,4,1,10,0.00
2013-10-3,93.9,74.7,62.8,78.9,70.8,62.5,99,90,51,30.11,30.00,5,0,8,0.00
2013-10-4,97.3,80.2,70.3,82.6,73.8,69.7,99,84,43,30.12,30.00,4,0,8,0.00
2013-10-5,96.1,79.2,67.8,82.2,73.3,67.5,99,85,49,30.09,29.97,5,0,10,0.00
2013-10-6,95.9,78.7,66.6,83.2,73.2,66.3,99,86,48,30.02,29.85,6,1,11,0.00
2013-10-7,95.4,77.3,69.6,82.4,74.1,69.3,99,91,53,29.87,29.73,4,0,8,0.52
2013-10-8,86.9,74.3,67.6,80.8,73.2,67.3,99,96,75,30.03,29.80,6,1,14,0.02
2013-10-9,72.5,66.0,59.2,69.8,65.2,58.9,99,97,89,30.12,30.01,4,1,8,0.00
2013-10-10,89.6,69.4,54.7,74.9,62.7,54.4,99,83,43,30.11,29.98,4,0,8,0.00
2013-10-11,89.4,69.5,54.9,75.4,63.3,54.6,99,84,42,30.07,29.95,5,0,10,0.00
2013-10-12,90.9,72.3,60.4,75.9,65.2,59.8,99,83,39,30.06,29.96,5,0,10,0.00
2013-10-13,92.8,71.1,54.5,74.5,63.4,54.2,99,82,36,30.12,30.00,4,0,9,0.00
2013-10-14,84.0,69.8,60.4,74.6,66.8,60.2,99,91,66,30.11,30.00,5,1,12,0.00
2013-10-15,72.7,69.5,66.7,72.4,69.2,66.4,99,99,99,30.05,29.96,5,1,10,0.00
2013-10-16,89.8,74.1,62.1,76.7,70.8,61.8,99,91,62,30.02,29.91,4,0,7,0.00
2013-10-17,92.5,75.7,66.2,78.9,70.8,65.9,99,87,53,30.00,29.89,5,0,8,0.00
2013-10-18,93.9,75.2,61.9,79.2,70.2,61.6,99,87,52,30.01,29.89,6,1,11,0.00
2013-10-19,91.9,74.2,66.0,80.1,72.2,65.7,99,94,63,29.97,29.87,4,0,8,0.00
2013-10-20,86.4,73.3,62.8,71.6,68.3,62.5,99,86,58,30.01,29.91,4,1,9,0.00
2013-10-21,73.0,73.0,73.0,72.7,72.7,72.7,99,99,99,30.04,30.04,0,0,2,0.00
2013-10-26,79.2,73.1,61.5,58.5,53.6,47.4,84,53,35,30.27,29.92,4,1,10,0.11
2013-10-27,82.8,68.4,50.0,63.2,51.6,44.2,99,63,29,30.20,30.09,4,1,8,0.00
2013-10-28,87.3,62.7,44.1,70.2,55.0,43.6,99,81,38,30.26,30.14,4,0,9,0.00
2013-10-29,88.3,65.2,48.6,71.2,58.6,48.3,99,83,41,30.30,30.19,6,1,12,0.00
2013-10-30,57.2,55.1,53.4,56.9,54.8,53.1,99,99,99,30.28,30.22,0,0,0,0.00
2013-10-31,70.2,66.8,64.4,69.9,66.5,64.1,99,99,99,30.02,29.99,2,0,4,0.00
2013-11-1,80.6,70.6,61.5,78.0,69.9,61.2,99,98,87,30.02,29.82,10,2,17,0.00
2013-11-2,76.5,66.6,52.5,76.0,65.2,52.2,99,96,69,30.00,29.79,8,1,15,1.13
2013-11-3,77.4,58.4,46.9,58.0,50.2,42.2,99,80,30,30.24,29.99,6,1,13,0.00
2013-11-4,76.5,61.5,50.9,66.9,59.0,50.6,99,92,66,30.29,30.21,8,2,17,0.00
2013-11-5,71.8,64.8,59.7,69.3,64.1,59.4,99,98,89,30.29,30.18,8,2,17,0.00
2013-11-6,83.1,70.8,65.7,74.1,68.9,65.4,99,94,73,30.21,30.08,5,1,10,0.00
2013-11-7,87.3,71.6,64.6,77.4,68.5,64.3,99,91,57,30.09,29.97,4,0,9,0.01
2013-11-8,75.0,61.2,48.6,67.5,53.7,46.3,99,78,53,30.23,30.05,9,2,14,0.00
2013-11-9,82.6,63.0,48.4,66.9,58.1,48.1,99,87,55,30.26,30.16,7,1,12,0.00
2013-11-10,82.9,64.8,53.4,70.3,60.7,53.1,99,89,55,30.26,30.12,4,0,8,0.00
2013-11-11,86.2,64.1,47.1,68.8,58.5,46.9,99,85,47,30.27,30.09,3,0,6,2.51
2013-11-12,82.4,65.6,55.8,71.7,61.6,53.0,99,89,50,30.18,30.04,4,0,11,0.00
2013-11-13,59.7,49.3,38.3,53.5,40.8,32.5,86,73,49,30.47,30.18,9,2,17,0.00
2013-11-14,74.8,53.5,36.9,60.6,48.5,32.1,99,84,58,30.42,30.24,5,1,11,0.00
2013-11-15,65.7,60.9,51.4,65.4,60.7,51.2,99,99,99,30.25,30.07,2,0,8,0.12
2013-11-16,80.2,67.3,57.9,76.7,66.6,57.6,99,98,85,30.19,30.08,5,1,10,0.00
2013-11-17,82.2,72.2,66.2,79.1,71.4,65.7,99,97,86,30.12,29.99,7,1,13,0.25
2013-11-18,78.8,71.0,64.9,78.5,70.7,64.7,99,99,99,30.04,29.92,7,1,11,0.11
2013-11-19,78.3,63.8,52.0,70.2,59.5,51.1,99,87,58,30.08,29.93,7,1,14,0.00
2013-11-20,72.3,62.1,54.7,70.8,61.6,54.4,99,98,94,30.21,30.04,7,1,17,0.00
2013-11-21,77.7,69.5,61.5,75.4,68.6,61.2,99,97,89,30.27,30.17,4,1,10,0.00
2013-11-22,85.8,69.8,60.1,78.3,68.0,59.8,99,95,69,30.26,30.14,4,1,9,0.00
2013-11-23,85.1,68.3,54.9,76.0,65.5,54.6,99,92,65,30.16,30.02,4,0,8,0.00
2013-11-24,66.0,56.1,43.9,65.7,50.0,41.0,99,81,51,30.38,30.10,9,2,15,0.00
2013-11-25,78.3,56.2,42.6,64.5,53.2,40.2,99,91,66,30.35,30.12,6,1,12,0.00
2013-11-26,77.2,68.3,57.9,76.9,68.0,57.6,99,99,99,30.12,29.70,12,3,23,0.93
2013-11-27,70.2,52.6,31.5,69.9,51.4,31.2,99,96,78,30.27,29.65,8,2,18,0.98
2013-11-28,63.1,42.6,27.1,47.9,38.9,26.9,99,89,51,30.45,30.26,7,1,11,0.00
2013-11-29,72.5,53.3,39.6,54.2,47.1,39.3,99,83,44,30.46,30.35,5,1,10,0.00
2013-11-30,73.2,58.4,48.2,64.5,56.6,47.9,99,94,72,30.41,30.26,8,1,17,0.00
2013-12-1,78.3,60.7,50.2,67.3,57.7,49.9,99,91,61,30.27,30.01,4,0,8,0.00
2013-12-2,75.9,61.4,50.9,67.8,57.7,50.6,99,90,52,30.01,29.83,7,0,11,0.00
2013-12-3,79.3,59.8,44.8,67.2,56.3,44.3,99,90,61,29.99,29.88,8,1,12,0.00
2013-12-4,81.3,61.8,53.2,75.5,61.1,53.0,99,98,74,30.12,29.97,7,0,10,0.00
2013-12-5,85.5,67.1,54.1,77.6,63.9,53.9,99,91,63,30.19,30.07,7,1,12,0.00
2013-12-6,84.6,69.1,58.5,77.4,66.3,58.2,99,92,67,30.18,30.09,9,1,18,0.00
2013-12-7,86.9,71.0,59.9,78.1,68.6,59.6,99,93,66,30.24,30.13,8,1,13,0.00
2013-12-8,87.4,70.3,57.9,78.2,67.5,57.6,99,92,61,30.25,30.10,6,1,14,0.00
2013-12-9,86.2,72.5,63.9,76.7,69.5,63.6,99,92,64,30.19,30.07,10,1,20,0.00
2013-12-10,82.6,67.9,51.8,78.6,67.5,51.3,99,99,86,30.28,30.05,10,2,19,0.22
2013-12-11,70.3,58.1,45.7,65.3,56.4,45.4,99,94,82,30.34,30.23,6,1,11,0.00
2013-12-12,70.9,54.7,35.6,57.8,42.5,22.7,99,73,17,30.41,30.27,8,1,13,0.00
2013-12-13,74.8,51.3,33.4,61.1,47.3,33.2,99,89,54,30.36,30.15,5,1,11,0.00
2013-12-14,77.5,64.0,49.6,75.6,63.5,49.4,99,98,92,30.15,29.90,10,2,19,0.93
2013-12-15,70.5,59.4,44.8,68.7,59.0,44.5,99,99,87,30.21,29.87,5,1,15,0.12
2013-12-16,65.1,45.4,34.2,49.4,41.0,33.9,99,88,44,30.29,30.19,6,0,9,0.00
2013-12-17,72.9,47.5,30.7,55.6,39.3,30.5,99,81,26,30.31,30.19,4,0,7,0.00
2013-12-18,70.3,46.2,33.1,51.6,37.1,31.6,99,79,25,30.35,30.24,6,0,15,0.00
2013-12-19,77.9,49.5,29.1,61.2,44.9,28.9,99,88,45,30.34,30.21,8,0,11,0.00
2013-12-20,84.7,59.2,41.0,69.1,55.4,40.7,99,90,49,30.24,30.12,6,0,10,0.00
2013-12-21,87.6,69.2,55.4,76.7,65.5,55.1,99,90,57,30.16,30.01,9,1,20,0.00
2013-12-22,81.5,72.4,65.5,78.2,71.4,65.2,99,97,88,30.13,30.07,11,2,19,0.00
2013-12-23,83.7,71.2,59.7,78.6,70.1,59.4,99,97,78,30.18,30.07,11,2,19,0.02
2013-12-24,64.6,52.6,33.6,59.4,45.3,33.4,99,81,33,30.35,30.16,8,1,14,0.00
2013-12-25,68.0,48.3,32.4,58.9,46.4,32.1,99,94,69,30.35,30.24,6,1,14,0.00
2013-12-26,66.6,53.8,49.5,58.8,52.5,49.2,99,96,72,30.30,30.18,4,1,9,0.00
2013-12-27,61.5,54.3,50.2,61.1,54.0,49.9,99,99,98,30.35,30.25,6,1,11,0.00
2013-12-28,71.8,62.0,51.8,71.5,61.7,51.5,99,99,99,30.31,29.98,5,1,10,0.38
2013-12-29,78.4,68.1,52.7,73.1,67.2,52.4,99,97,71,30.04,29.89,8,2,16,0.20
2013-12-30,71.8,56.2,42.8,57.4,51.7,42.5,99,88,50,30.23,30.04,4,0,8,0.00
2013-12-31,65.3,53.9,52.3,58.5,53.5,52.1,99,99,74,30.36,30.21,2,0,4,0.00
2014-1-1,58.6,58.6,58.1,58.4,58.3,57.8,99,99,99,30.19,30.09,3,0,5,0.87
2014-1-2,64.8,59.6,50.7,64.5,59.3,50.1,99,99,99,30.10,29.78,8,1,16,0.54